createdAt,value
2018-07-22T00:01:54.306Z,9.03
2018-07-22T00:04:21.704Z,7.47
2018-07-22T00:06:49.096Z,7.97
2018-07-22T00:09:16.454Z,6.10
2018-07-22T00:11:43.793Z,6.50
2018-07-22T00:14:11.243Z,7.07
2018-07-22T00:16:38.573Z,7.90
2018-07-22T00:19:06.015Z,6.17
2018-07-22T00:21:33.404Z,5.67
2018-07-22T00:24:00.987Z,5.70
2018-07-22T00:26:28.379Z,5.57
2018-07-22T00:28:55.803Z,5.87
2018-07-22T00:31:23.163Z,7.30
2018-07-22T00:33:50.550Z,6.30
2018-07-22T00:36:17.927Z,5.63
2018-07-22T00:38:45.279Z,6.53
2018-07-22T00:41:12.634Z,6.63
2018-07-22T00:43:40.020Z,6.23
2018-07-22T00:46:07.395Z,6.40
2018-07-22T00:48:34.769Z,6.13
2018-07-22T00:51:02.158Z,6.33
2018-07-22T00:53:29.603Z,6.20
2018-07-22T00:55:57.012Z,6.13
2018-07-22T00:58:24.387Z,6.37
2018-07-22T01:00:51.768Z,6.67
2018-07-22T01:03:19.179Z,6.37
2018-07-22T01:05:46.539Z,6.13
2018-07-22T01:08:13.919Z,7.87
2018-07-22T01:10:41.371Z,6.57
2018-07-22T01:13:08.744Z,7.03
2018-07-22T01:15:36.147Z,6.40
2018-07-22T01:18:03.550Z,7.10
2018-07-22T01:20:30.931Z,8.40
2018-07-22T01:22:58.293Z,6.73
2018-07-22T01:25:25.696Z,6.97
2018-07-22T01:27:53.070Z,8.33
2018-07-22T01:30:20.451Z,7.63
2018-07-22T01:32:47.869Z,9.83
2018-07-22T01:35:15.223Z,9.57
2018-07-22T01:37:42.618Z,7.97
2018-07-22T01:40:09.995Z,9.07
2018-07-22T01:42:37.364Z,8.07
2018-07-22T01:45:04.758Z,8.83
2018-07-22T01:47:32.111Z,9.07
2018-07-22T01:49:59.470Z,9.50
2018-07-22T01:52:26.820Z,8.53
2018-07-22T01:54:54.164Z,11.13
2018-07-22T01:57:21.535Z,10.17
2018-07-22T01:59:48.896Z,9.57
2018-07-22T02:02:16.271Z,8.63
2018-07-22T02:04:43.652Z,9.40
2018-07-22T02:07:11.046Z,11.23
2018-07-22T02:09:38.396Z,11.40
2018-07-22T02:12:05.822Z,10.80
2018-07-22T02:14:33.359Z,10.47
2018-07-22T02:17:00.715Z,11.17
2018-07-22T02:19:28.125Z,12.83
2018-07-22T02:21:55.466Z,12.40
2018-07-22T02:24:22.812Z,12.23
2018-07-22T02:26:50.183Z,11.57
2018-07-22T02:29:17.553Z,10.20
2018-07-22T02:31:44.919Z,11.77
2018-07-22T02:34:12.279Z,10.27
2018-07-22T02:36:39.752Z,11.63
2018-07-22T02:39:09.495Z,11.00
2018-07-22T02:41:36.899Z,14.70
2018-07-22T02:44:04.406Z,10.50
2018-07-22T02:46:31.929Z,13.07
2018-07-22T02:48:59.280Z,11.73
2018-07-22T02:51:26.665Z,13.33
2018-07-22T02:53:54.036Z,11.53
2018-07-22T02:56:21.446Z,11.97
2018-07-22T02:58:48.852Z,13.67
2018-07-22T03:01:16.288Z,14.47
2018-07-22T03:03:43.671Z,13.00
2018-07-22T03:06:11.090Z,13.27
2018-07-22T03:08:38.474Z,15.87
2018-07-22T03:11:05.887Z,13.20
2018-07-22T03:13:33.273Z,13.83
2018-07-22T03:16:00.673Z,12.00
2018-07-22T03:18:28.028Z,12.33
2018-07-22T03:20:55.387Z,13.53
2018-07-22T03:23:22.804Z,13.63
2018-07-22T03:25:50.195Z,13.10
2018-07-22T03:28:17.560Z,12.93
2018-07-22T03:30:44.910Z,12.37
2018-07-22T03:33:12.282Z,12.37
2018-07-22T03:35:39.655Z,14.40
2018-07-22T03:38:07.015Z,13.80
2018-07-22T03:40:34.373Z,14.20
2018-07-22T03:43:01.739Z,16.43
2018-07-22T03:45:29.110Z,12.67
2018-07-22T03:47:56.468Z,13.70
2018-07-22T03:50:23.850Z,13.23
2018-07-22T03:52:51.199Z,12.93
2018-07-22T03:55:18.550Z,14.97
2018-07-22T03:57:45.906Z,16.67
2018-07-22T04:00:13.291Z,12.63
2018-07-22T04:02:40.671Z,12.93
2018-07-22T04:05:08.064Z,12.20
2018-07-22T04:07:35.444Z,15.57
2018-07-22T04:10:02.936Z,13.00
2018-07-22T04:12:30.338Z,13.90
2018-07-22T04:14:57.710Z,14.20
2018-07-22T04:17:25.087Z,13.77
2018-07-22T04:19:52.460Z,13.50
2018-07-22T04:22:19.865Z,12.20
2018-07-22T04:24:47.277Z,13.20
2018-07-22T04:27:17.634Z,15.80
2018-07-22T04:29:45.031Z,13.67
2018-07-22T04:32:12.426Z,13.07
2018-07-22T04:34:39.816Z,14.47
2018-07-22T04:37:07.187Z,12.37
2018-07-22T04:39:34.586Z,12.17
2018-07-22T04:42:01.968Z,12.60
2018-07-22T04:44:29.410Z,12.13
2018-07-22T04:46:56.819Z,11.33
2018-07-22T04:49:24.197Z,11.50
2018-07-22T04:51:51.611Z,12.53
2018-07-22T04:54:18.980Z,12.13
2018-07-22T04:56:46.351Z,11.90
2018-07-22T04:59:13.723Z,11.17
2018-07-22T05:01:41.076Z,13.73
2018-07-22T05:04:08.493Z,13.57
2018-07-22T05:06:35.871Z,11.50
2018-07-22T05:09:05.449Z,12.40
2018-07-22T05:11:32.823Z,13.40
2018-07-22T05:14:00.199Z,11.87
2018-07-22T05:16:27.581Z,12.97
2018-07-22T05:18:54.983Z,13.77
2018-07-22T05:21:22.383Z,11.93
2018-07-22T05:23:49.759Z,12.93
2018-07-22T05:26:17.158Z,11.03
2018-07-22T05:28:44.555Z,12.93
2018-07-22T05:31:11.929Z,12.03
2018-07-22T05:33:39.317Z,12.03
2018-07-22T05:36:06.711Z,12.07
2018-07-22T05:38:34.088Z,12.83
2018-07-22T05:41:01.480Z,14.57
2018-07-22T05:43:28.824Z,14.43
2018-07-22T05:45:56.233Z,15.10
2018-07-22T05:48:23.649Z,14.07
2018-07-22T05:50:51.031Z,14.60
2018-07-22T05:53:18.684Z,14.33
2018-07-22T05:55:46.079Z,16.73
2018-07-22T05:58:13.505Z,14.77
2018-07-22T06:00:40.905Z,16.50
2018-07-22T06:03:08.345Z,14.80
2018-07-22T06:05:35.832Z,14.47
2018-07-22T06:08:03.279Z,15.07
2018-07-22T06:10:30.663Z,15.03
2018-07-22T06:12:58.063Z,14.97
2018-07-22T06:15:25.512Z,14.67
2018-07-22T06:17:52.908Z,13.97
2018-07-22T06:20:20.275Z,13.03
2018-07-22T06:22:47.728Z,14.73
2018-07-22T06:25:15.180Z,13.37
2018-07-22T06:27:42.569Z,13.23
2018-07-22T06:30:10.007Z,13.20
2018-07-22T06:32:37.411Z,14.70
2018-07-22T06:35:05.027Z,14.60
2018-07-22T06:37:32.580Z,13.60
2018-07-22T06:40:00.028Z,14.50
2018-07-22T06:42:27.537Z,13.67
2018-07-22T06:44:54.906Z,14.17
2018-07-22T06:47:22.309Z,12.83
2018-07-22T06:49:49.880Z,13.07
2018-07-22T06:52:17.263Z,13.57
2018-07-22T06:54:44.681Z,13.10
2018-07-22T06:57:12.148Z,13.37
2018-07-22T06:59:39.527Z,11.80
2018-07-22T07:02:06.960Z,13.97
2018-07-22T07:04:34.363Z,12.17
2018-07-22T07:07:01.770Z,11.83
2018-07-22T07:09:29.213Z,10.73
2018-07-22T07:11:56.635Z,12.00
2018-07-22T07:14:24.015Z,10.07
2018-07-22T07:16:51.427Z,9.70
2018-07-22T07:19:18.844Z,9.60
2018-07-22T07:21:46.223Z,9.00
2018-07-22T07:24:13.585Z,9.77
2018-07-22T07:26:41.239Z,9.13
2018-07-22T07:29:08.623Z,9.28
2018-07-22T07:31:36.010Z,9.50
2018-07-22T07:34:03.413Z,7.67
2018-07-22T07:36:30.809Z,8.45
2018-07-22T07:38:58.223Z,9.95
2018-07-22T07:41:25.633Z,10.08
2018-07-22T07:43:53.039Z,9.95
2018-07-22T07:46:20.448Z,10.88
2018-07-22T07:48:47.880Z,11.18
2018-07-22T07:51:15.306Z,11.68
2018-07-22T07:53:42.703Z,11.93
2018-07-22T07:56:10.118Z,11.95
2018-07-22T07:58:37.513Z,12.80
2018-07-22T08:01:04.998Z,11.60
2018-07-22T08:03:32.479Z,11.97
2018-07-22T08:05:59.876Z,13.50
2018-07-22T08:08:27.369Z,11.03
2018-07-22T08:10:54.836Z,10.60
2018-07-22T08:13:22.216Z,11.90
2018-07-22T08:15:49.673Z,13.35
2018-07-22T08:18:17.106Z,10.63
2018-07-22T08:20:44.528Z,11.20
2018-07-22T08:23:12.056Z,11.00
2018-07-22T08:25:39.469Z,11.75
2018-07-22T08:28:06.849Z,9.23
2018-07-22T08:30:34.287Z,9.90
2018-07-22T08:33:01.694Z,12.53
2018-07-22T08:35:29.302Z,10.05
2018-07-22T08:37:56.699Z,10.27
2018-07-22T08:40:24.850Z,10.45
2018-07-22T08:42:52.229Z,9.58
2018-07-22T08:45:19.628Z,9.58
2018-07-22T08:47:47.157Z,8.20
2018-07-22T08:50:14.529Z,8.55
2018-07-22T08:52:41.911Z,7.80
2018-07-22T08:55:09.337Z,7.45
2018-07-22T08:57:36.755Z,8.18
2018-07-22T09:00:04.745Z,9.10
2018-07-22T09:02:32.146Z,8.40
2018-07-22T09:04:59.748Z,8.00
2018-07-22T09:07:27.146Z,7.87
2018-07-22T09:09:54.507Z,8.07
2018-07-22T09:12:21.879Z,7.63
2018-07-22T09:14:49.255Z,6.37
2018-07-22T09:17:16.614Z,8.37
2018-07-22T09:19:43.966Z,9.05
2018-07-22T09:22:11.347Z,7.95
2018-07-22T09:24:38.703Z,7.17
2018-07-22T09:27:06.524Z,9.08
2018-07-22T09:29:33.862Z,9.83
2018-07-22T09:32:01.219Z,7.90
2018-07-22T09:34:28.643Z,8.08
2018-07-22T09:36:56.027Z,7.08
2018-07-22T09:39:23.403Z,7.67
2018-07-22T09:41:50.891Z,6.72
2018-07-22T09:44:18.310Z,8.73
2018-07-22T09:46:45.678Z,7.40
2018-07-22T09:49:13.040Z,8.85
2018-07-22T09:51:40.423Z,8.50
2018-07-22T09:54:07.832Z,7.67
2018-07-22T09:56:35.194Z,7.95
2018-07-22T09:59:02.612Z,8.48
2018-07-22T10:01:30.025Z,7.62
2018-07-22T10:03:57.383Z,7.45
2018-07-22T10:06:24.808Z,8.88
2018-07-22T10:08:52.429Z,9.23
2018-07-22T10:11:19.892Z,7.08
2018-07-22T10:13:47.231Z,7.83
2018-07-22T10:16:14.625Z,6.55
2018-07-22T10:18:42.022Z,8.23
2018-07-22T10:21:09.415Z,6.00
2018-07-22T10:23:36.843Z,6.53
2018-07-22T10:26:04.244Z,5.78
2018-07-22T10:28:31.643Z,6.12
2018-07-22T10:30:59.045Z,5.70
2018-07-22T10:33:26.409Z,7.10
2018-07-22T10:35:53.903Z,6.22
2018-07-22T10:38:21.242Z,7.55
2018-07-22T10:40:48.663Z,5.55
2018-07-22T10:43:16.010Z,5.92
2018-07-22T10:45:43.404Z,5.80
2018-07-22T10:48:10.837Z,7.45
2018-07-22T10:50:38.243Z,5.72
2018-07-22T10:53:05.691Z,6.33
2018-07-22T10:55:33.059Z,7.00
2018-07-22T10:58:00.451Z,6.05
2018-07-22T11:00:27.823Z,6.08
2018-07-22T11:02:55.227Z,5.80
2018-07-22T11:05:22.647Z,5.08
2018-07-22T11:07:50.212Z,5.85
2018-07-22T11:10:17.588Z,5.78
2018-07-22T11:12:44.980Z,5.70
2018-07-22T11:15:12.361Z,5.47
2018-07-22T11:17:39.814Z,5.22
2018-07-22T11:20:07.223Z,6.53
2018-07-22T11:22:34.578Z,5.80
2018-07-22T11:25:01.955Z,7.08
2018-07-22T11:27:29.397Z,6.00
2018-07-22T11:29:56.779Z,5.87
2018-07-22T11:32:24.171Z,6.97
2018-07-22T11:34:51.559Z,5.50
2018-07-22T11:37:18.928Z,6.75
2018-07-22T11:39:46.275Z,6.60
2018-07-22T11:42:13.668Z,6.50
2018-07-22T11:44:41.035Z,5.78
2018-07-22T11:47:08.443Z,6.00
2018-07-22T11:49:35.836Z,7.25
2018-07-22T11:52:03.264Z,6.00
2018-07-22T11:54:30.649Z,6.90
2018-07-22T11:56:58.008Z,5.85
2018-07-22T11:59:25.382Z,5.22
2018-07-22T12:01:52.876Z,6.60
2018-07-22T12:04:20.269Z,6.00
2018-07-22T12:06:47.648Z,6.00
2018-07-22T12:09:15.043Z,6.45
2018-07-22T12:11:42.524Z,6.60
2018-07-22T12:14:09.963Z,8.95
2018-07-22T12:16:37.351Z,5.72
2018-07-22T12:19:04.996Z,6.35
2018-07-22T12:21:32.666Z,5.65
2018-07-22T12:24:00.069Z,6.05
2018-07-22T12:26:27.464Z,6.87
2018-07-22T12:28:54.845Z,6.40
2018-07-22T12:31:22.233Z,5.75
2018-07-22T12:33:49.688Z,6.12
2018-07-22T12:36:17.091Z,6.67
2018-07-22T12:38:44.510Z,6.35
2018-07-22T12:41:11.913Z,5.97
2018-07-22T12:43:39.282Z,6.00
2018-07-22T12:46:06.701Z,4.90
2018-07-22T12:48:34.264Z,5.85
2018-07-22T12:51:01.688Z,6.20
2018-07-22T12:53:29.071Z,5.47
2018-07-22T12:55:56.456Z,5.87
2018-07-22T12:58:23.872Z,7.42
2018-07-22T13:00:51.238Z,7.55
2018-07-22T13:03:18.625Z,6.03
2018-07-22T13:05:46.011Z,7.10
2018-07-22T13:08:13.388Z,6.03
2018-07-22T13:10:40.750Z,6.80
2018-07-22T13:13:08.185Z,6.90
2018-07-22T13:15:35.535Z,6.37
2018-07-22T13:18:02.952Z,5.95
2018-07-22T13:20:30.351Z,6.25
2018-07-22T13:22:57.718Z,6.45
2018-07-22T13:25:25.107Z,6.10
2018-07-22T13:27:52.514Z,7.75
2018-07-22T13:30:19.894Z,9.18
2018-07-22T13:32:47.268Z,5.92
2018-07-22T13:35:14.631Z,6.70
2018-07-22T13:37:42.017Z,6.17
2018-07-22T13:40:09.380Z,6.00
2018-07-22T13:42:36.787Z,7.65
2018-07-22T13:45:04.542Z,5.80
2018-07-22T13:47:31.915Z,6.00
2018-07-22T13:49:59.356Z,6.17
2018-07-22T13:52:26.741Z,6.95
2018-07-22T13:54:54.100Z,6.00
2018-07-22T13:57:21.493Z,5.42
2018-07-22T13:59:48.860Z,5.67
2018-07-22T14:02:16.203Z,6.30
2018-07-22T14:04:43.591Z,5.80
2018-07-22T14:07:11.048Z,9.38
2018-07-22T14:09:38.383Z,6.45
2018-07-22T14:12:05.825Z,5.95
2018-07-22T14:14:33.168Z,6.75
2018-07-22T14:17:00.569Z,5.97
2018-07-22T14:19:28.903Z,5.85
2018-07-22T14:21:56.305Z,5.83
2018-07-22T14:24:23.658Z,5.40
2018-07-22T14:26:50.998Z,5.12
2018-07-22T14:29:18.378Z,5.62
2018-07-22T14:31:45.771Z,5.40
2018-07-22T14:34:13.160Z,5.80
2018-07-22T14:36:40.654Z,8.75
2018-07-22T14:39:09.634Z,5.10
2018-07-22T14:41:38.472Z,5.42
2018-07-22T14:44:05.921Z,5.05
2018-07-22T14:46:33.295Z,4.65
2018-07-22T14:49:00.722Z,5.83
2018-07-22T14:51:28.060Z,5.92
2018-07-22T14:53:55.488Z,5.12
2018-07-22T14:56:22.911Z,5.67
2018-07-22T14:58:50.359Z,5.05
2018-07-22T15:01:17.795Z,5.40
2018-07-22T15:03:45.177Z,4.65
2018-07-22T15:06:13.032Z,5.47
2018-07-22T15:08:40.763Z,5.47
2018-07-22T15:11:08.188Z,4.80
2018-07-22T15:13:35.936Z,6.33
2018-07-22T15:16:03.432Z,5.25
2018-07-22T15:18:30.912Z,4.80
2018-07-22T15:20:58.324Z,5.90
2018-07-22T15:23:26.399Z,5.00
2018-07-22T15:25:53.810Z,5.25
2018-07-22T15:28:21.255Z,5.60
2018-07-22T15:30:48.652Z,6.12
2018-07-22T15:33:16.056Z,5.80
2018-07-22T15:35:43.472Z,4.87
2018-07-22T15:38:11.125Z,6.22
2018-07-22T15:40:38.623Z,6.20
2018-07-22T15:43:06.081Z,6.10
2018-07-22T15:45:33.898Z,5.28
2018-07-22T15:48:01.356Z,5.25
2018-07-22T15:50:28.796Z,6.58
2018-07-22T15:52:56.234Z,5.30
2018-07-22T15:55:24.001Z,4.65
2018-07-22T15:57:51.175Z,5.47
2018-07-22T16:00:18.560Z,4.55
2018-07-22T16:02:45.961Z,6.90
2018-07-22T16:05:13.399Z,4.22
2018-07-22T16:07:40.785Z,3.85
2018-07-22T16:10:08.167Z,4.12
2018-07-22T16:12:35.587Z,4.95
2018-07-22T16:15:03.250Z,3.90
2018-07-22T16:17:30.672Z,4.37
2018-07-22T16:19:58.290Z,3.83
2018-07-22T16:22:25.760Z,3.42
2018-07-22T16:24:53.164Z,3.85
2018-07-22T16:27:20.779Z,3.08
2018-07-22T16:29:48.244Z,3.10
2018-07-22T16:32:15.659Z,4.03
2018-07-22T16:34:43.051Z,3.30
2018-07-22T16:37:10.484Z,2.90
2018-07-22T16:39:37.991Z,3.40
2018-07-22T16:42:05.489Z,3.37
2018-07-22T16:44:32.887Z,3.22
2018-07-22T16:47:00.287Z,3.10
2018-07-22T16:49:27.672Z,2.92
2018-07-22T16:51:55.045Z,2.83
2018-07-22T16:54:22.453Z,2.80
2018-07-22T16:56:49.863Z,3.75
2018-07-22T16:59:17.285Z,2.60
2018-07-22T17:01:44.700Z,2.70
2018-07-22T17:04:12.124Z,2.70
2018-07-22T17:06:39.511Z,2.83
2018-07-22T17:09:08.527Z,3.95
2018-07-22T17:11:35.931Z,2.50
2018-07-22T17:14:03.412Z,3.35
2018-07-22T17:16:31.011Z,2.47
2018-07-22T17:18:58.424Z,3.17
2018-07-22T17:21:25.859Z,3.02
2018-07-22T17:23:53.334Z,3.22
2018-07-22T17:26:20.796Z,3.33
2018-07-22T17:28:48.323Z,3.65
2018-07-22T17:31:15.810Z,2.58
2018-07-22T17:33:43.185Z,2.72
2018-07-22T17:36:10.600Z,2.80
2018-07-22T17:38:38.016Z,2.70
2018-07-22T17:41:06.066Z,2.85
2018-07-22T17:43:33.452Z,4.10
2018-07-22T17:46:00.882Z,3.00
2018-07-22T17:48:28.275Z,2.70
2018-07-22T17:50:55.676Z,2.60
2018-07-22T17:53:23.085Z,2.80
2018-07-22T17:55:50.466Z,2.77
2018-07-22T17:58:17.871Z,3.02
2018-07-22T18:00:45.273Z,3.47
2018-07-22T18:03:19.359Z,3.02
2018-07-22T18:05:46.732Z,6.40
2018-07-22T18:08:14.208Z,3.40
2018-07-22T18:10:41.661Z,4.28
2018-07-22T18:13:09.111Z,3.30
2018-07-22T18:15:36.543Z,2.85
2018-07-22T18:18:04.148Z,2.95
2018-07-22T18:20:31.672Z,3.10
2018-07-22T18:22:59.177Z,2.80
2018-07-22T18:25:26.581Z,2.90
2018-07-22T18:27:54.004Z,3.50
2018-07-22T18:30:21.446Z,3.35
2018-07-22T18:32:48.894Z,2.55
2018-07-22T18:35:16.372Z,2.95
2018-07-22T18:37:43.832Z,3.30
2018-07-22T18:40:11.283Z,3.45
2018-07-22T18:42:38.712Z,4.42
2018-07-22T18:45:06.159Z,3.30
2018-07-22T18:47:33.617Z,3.00
2018-07-22T18:50:01.088Z,2.90
2018-07-22T18:52:28.516Z,3.50
2018-07-22T18:54:55.987Z,3.52
2018-07-22T18:57:23.424Z,3.20
2018-07-22T18:59:50.941Z,2.77
2018-07-22T19:02:18.358Z,3.58
2018-07-22T19:04:45.820Z,3.02
2018-07-22T19:07:13.244Z,2.90
2018-07-22T19:09:40.648Z,3.40
2018-07-22T19:12:08.094Z,5.40
2018-07-22T19:14:35.515Z,3.52
2018-07-22T19:17:04.315Z,3.50
2018-07-22T19:19:31.831Z,3.43
2018-07-22T19:21:59.247Z,3.30
2018-07-22T19:24:26.667Z,3.13
2018-07-22T19:26:54.396Z,3.37
2018-07-22T19:29:21.791Z,4.47
2018-07-22T19:31:49.227Z,3.70
2018-07-22T19:34:16.676Z,3.63
2018-07-22T19:36:44.119Z,3.97
2018-07-22T19:39:11.554Z,3.23
2018-07-22T19:41:39.028Z,3.80
2018-07-22T19:44:06.884Z,3.73
2018-07-22T19:46:34.576Z,3.30
2018-07-22T19:49:02.000Z,4.23
2018-07-22T19:51:29.444Z,3.47
2018-07-22T19:53:56.863Z,4.67
2018-07-22T19:56:24.294Z,4.67
2018-07-22T19:58:51.715Z,3.80
2018-07-22T20:01:19.139Z,4.40
2018-07-22T20:03:46.591Z,4.00
2018-07-22T20:06:13.995Z,4.90
2018-07-22T20:08:41.425Z,4.13
2018-07-22T20:11:08.877Z,4.63
2018-07-22T20:13:36.280Z,4.17
2018-07-22T20:16:03.736Z,4.27
2018-07-22T20:18:31.671Z,5.37
2018-07-22T20:20:59.128Z,5.33
2018-07-22T20:23:26.591Z,5.17
2018-07-22T20:25:54.055Z,5.20
2018-07-22T20:28:21.472Z,4.80
2018-07-22T20:30:48.879Z,3.97
2018-07-22T20:33:16.308Z,5.00
2018-07-22T20:35:43.744Z,4.83
2018-07-22T20:38:11.159Z,4.20
2018-07-22T20:40:38.599Z,6.07
2018-07-22T20:43:06.037Z,5.10
2018-07-22T20:45:33.478Z,5.20
2018-07-22T20:48:00.929Z,5.70
2018-07-22T20:50:28.362Z,5.30
2018-07-22T20:52:55.775Z,5.17
2018-07-22T20:55:23.289Z,5.90
2018-07-22T20:57:50.719Z,5.93
2018-07-22T21:00:18.164Z,5.70
2018-07-22T21:02:46.203Z,5.70
2018-07-22T21:05:13.639Z,5.47
2018-07-22T21:07:41.811Z,5.80
2018-07-22T21:10:09.277Z,4.90
2018-07-22T21:12:51.474Z,5.57
2018-07-22T21:15:19.147Z,7.67
2018-07-22T21:17:47.417Z,5.27
2018-07-22T21:20:15.755Z,5.30
2018-07-22T21:22:43.178Z,5.40
2018-07-22T21:25:10.870Z,6.07
2018-07-22T21:27:38.316Z,5.20
2018-07-22T21:30:06.626Z,4.83
2018-07-22T21:32:34.051Z,6.97
2018-07-22T21:35:01.642Z,4.77
2018-07-22T21:37:29.075Z,4.87
2018-07-22T21:39:56.505Z,10.60
2018-07-22T21:42:23.964Z,5.77
2018-07-22T21:44:51.365Z,5.80
2018-07-22T21:47:18.764Z,6.17
2018-07-22T21:49:46.183Z,4.90
2018-07-22T21:52:13.584Z,12.37
2018-07-22T21:54:41.007Z,5.43
2018-07-22T21:57:08.427Z,5.77
2018-07-22T21:59:35.835Z,5.70
2018-07-22T22:02:03.361Z,5.60
2018-07-22T22:04:30.822Z,6.27
2018-07-22T22:06:58.264Z,6.47
2018-07-22T22:09:25.707Z,6.17
2018-07-22T22:11:53.319Z,6.07
2018-07-22T22:14:20.724Z,6.10
2018-07-22T22:16:48.588Z,5.90
2018-07-22T22:19:16.017Z,6.63
2018-07-22T22:21:43.479Z,6.40
2018-07-22T22:24:10.896Z,6.77
2018-07-22T22:26:38.308Z,6.50
2018-07-22T22:29:05.745Z,6.40
2018-07-22T22:31:33.297Z,6.23
2018-07-22T22:34:00.736Z,7.57
2018-07-22T22:36:28.311Z,5.57
2018-07-22T22:38:55.744Z,6.17
2018-07-22T22:41:23.140Z,5.97
2018-07-22T22:43:50.583Z,5.83
2018-07-22T22:46:17.987Z,7.17
2018-07-22T22:48:45.383Z,5.90
2018-07-22T22:51:12.791Z,5.57
2018-07-22T22:53:40.176Z,6.83
2018-07-22T22:56:07.575Z,6.43
2018-07-22T22:58:46.571Z,7.50
2018-07-22T23:01:14.004Z,6.03
2018-07-22T23:03:41.386Z,6.93
2018-07-22T23:06:08.775Z,5.80
2018-07-22T23:08:36.178Z,6.20
2018-07-22T23:11:03.582Z,6.07
2018-07-22T23:13:31.028Z,5.63
2018-07-22T23:15:58.408Z,6.73
2018-07-22T23:18:25.803Z,6.77
2018-07-22T23:20:53.198Z,5.97
2018-07-22T23:23:20.622Z,6.40
2018-07-22T23:25:48.015Z,5.87
2018-07-22T23:28:15.444Z,6.33
2018-07-22T23:30:42.909Z,6.50
2018-07-22T23:33:10.297Z,7.57
2018-07-22T23:35:37.730Z,5.67
2018-07-22T23:38:05.309Z,5.00
2018-07-22T23:40:33.653Z,4.60
2018-07-22T23:43:01.058Z,5.20
2018-07-22T23:45:28.567Z,4.90
2018-07-22T23:47:55.981Z,4.63
2018-07-22T23:50:23.454Z,5.30
2018-07-22T23:52:50.851Z,5.77
2018-07-22T23:55:18.299Z,6.33
2018-07-22T23:57:45.726Z,5.63
